Time;durP1;ratioP1;P1;durP2;ratioP2;P2;SDS_P1;SDS_P2;PMS_P1;PMS_P2;Temp;Humidity;BMP_temperature;BMP_pressure;BME280_temperature;BME280_humidity;BME280_pressure;Samples;Min_cycle;Max_cycle;Signal;HPM_P1;HPM_P2
2023/10/10 00:01:46;;;;;;;0.90;0.90;;;;;;;0.46;91.51;98313.66;4769064;29;20055;-87
2023/10/10 00:04:13;;;;;;;0.90;0.90;;;;;;;0.42;90.46;98307.09;4785677;30;20068;-86
2023/10/10 00:06:40;;;;;;;0.90;0.90;;;;;;;0.41;90.69;98306.28;4772408;30;20071;-86
2023/10/10 00:09:11;;;;;;;1.10;1.10;;;;;;;0.44;90.37;98307.72;4772187;30;20062;-87
2023/10/10 00:11:41;;;;;;;0.93;0.93;;;;;;;0.46;90.46;98307.50;4773784;30;20508;-87
2023/10/10 00:14:17;;;;;;;1.00;1.00;;;;;;;0.42;90.44;98310.56;4773226;30;20056;-87
2023/10/10 00:16:47;;;;;;;0.80;0.80;;;;;;;0.37;90.31;98312.97;4777699;30;20054;-87
2023/10/10 00:21:54;;;;;;;0.90;0.90;;;;;;;0.40;90.86;98317.09;4785725;30;20126;-87
2023/10/10 00:24:30;;;;;;;1.00;1.00;;;;;;;0.40;90.80;98309.94;4772117;29;20056;-87
2023/10/10 00:27:06;;;;;;;0.88;0.88;;;;;;;0.43;91.10;98316.69;4771906;30;20567;-87
2023/10/10 00:29:33;;;;;;;0.90;0.90;;;;;;;0.49;91.62;98321.22;4773775;30;20310;-88
2023/10/10 00:32:13;;;;;;;0.80;0.80;;;;;;;0.55;91.62;98319.63;4787422;30;20134;-88
2023/10/10 00:34:40;;;;;;;1.00;1.00;;;;;;;0.56;91.07;98322.09;4775379;30;20529;-85
2023/10/10 00:37:08;;;;;;;1.00;1.00;;;;;;;0.55;90.77;98324.94;4806774;29;20052;-85
2023/10/10 00:39:36;;;;;;;0.80;0.80;;;;;;;0.56;90.59;98321.28;4776962;30;20531;-88
2023/10/10 00:42:07;;;;;;;1.10;1.10;;;;;;;0.57;90.73;98322.91;4773021;30;20060;-88
2023/10/10 00:44:38;;;;;;;1.05;1.05;;;;;;;0.58;90.29;98327.19;4772430;30;20062;-88
2023/10/10 00:47:12;;;;;;;1.00;1.00;;;;;;;0.58;90.38;98324.53;4786610;29;20559;-85
2023/10/10 00:49:43;;;;;;;1.00;1.00;;;;;;;0.55;90.47;98335.53;4785017;30;20234;-87
2023/10/10 00:52:16;;;;;;;1.00;1.00;;;;;;;0.57;90.44;98339.66;4771494;30;20067;-88
2023/10/10 00:54:44;;;;;;;1.10;1.10;;;;;;;0.53;90.20;98340.22;4771546;30;20507;-87
2023/10/10 00:57:19;;;;;;;0.93;0.93;;;;;;;0.53;90.19;98337.56;4775815;30;20083;-87
2023/10/10 00:59:54;;;;;;;1.00;1.00;;;;;;;0.49;89.92;98337.16;4774714;30;20179;-87
2023/10/10 01:02:22;;;;;;;;;;;;;;;0.47;90.10;98351.66;4792547;30;20051;-89
2023/10/10 01:07:21;;;;;;;0.90;0.90;;;;;;;0.40;90.16;98351.59;4774315;30;20060;-88
2023/10/10 01:10:07;;;;;;;0.90;0.90;;;;;;;0.45;90.14;98351.81;4785550;29;20534;-87
2023/10/10 01:12:39;;;;;;;1.00;1.00;;;;;;;0.44;90.01;98336.94;4771631;30;20056;-87
2023/10/10 01:15:25;;;;;;;0.75;0.75;;;;;;;0.39;89.97;98353.44;4770573;30;20048;-88
2023/10/10 01:17:54;;;;;;;0.95;0.95;;;;;;;0.39;90.07;98353.44;4757765;30;20067;-84
2023/10/10 01:20:34;;;;;;;0.90;0.90;;;;;;;0.34;90.25;98350.53;4769925;30;20055;-86
2023/10/10 01:23:02;;;;;;;0.90;0.90;;;;;;;0.31;90.57;98352.78;4771299;30;20059;-86
2023/10/10 01:31:03;;;;;;;1.00;1.00;;;;;;;0.28;91.30;98354.00;4770736;30;20066;-88
2023/10/10 01:36:12;;;;;;;0.90;0.90;;;;;;;0.25;91.43;98356.19;4784977;30;20581;-86
2023/10/10 01:38:59;;;;;;;1.00;1.00;;;;;;;0.22;91.59;98358.22;4770889;30;20432;-87
2023/10/10 01:41:38;;;;;;;1.00;1.00;;;;;;;0.20;91.61;98356.78;4766208;30;20056;-88
2023/10/10 01:44:12;;;;;;;0.80;0.80;;;;;;;0.18;91.70;98351.69;4777148;30;20134;-86
2023/10/10 01:46:40;;;;;;;0.90;0.90;;;;;;;0.13;92.04;98359.41;4767534;30;20066;-87
2023/10/10 01:49:20;;;;;;;1.00;1.00;;;;;;;0.08;92.40;98358.34;4783974;30;20055;-86
2023/10/10 01:52:23;;;;;;;1.00;1.00;;;;;;;0.05;92.50;98366.66;4771780;30;20144;-88
2023/10/10 01:54:45;;;;;;;1.00;1.00;;;;;;;-0.05;92.83;98373.13;4772081;30;20420;-86
2023/10/10 01:57:21;;;;;;;1.00;1.00;;;;;;;-0.14;92.88;98366.31;4771642;30;20056;-87
2023/10/10 01:59:51;;;;;;;1.10;1.10;;;;;;;-0.24;93.49;98373.78;4785272;30;20063;-87
2023/10/10 02:02:23;;;;;;;1.10;1.10;;;;;;;-0.23;93.72;98370.94;4771473;30;20188;-87
2023/10/10 02:04:59;;;;;;;1.10;1.10;;;;;;;-0.26;94.22;98375.78;4770871;29;20589;-87
2023/10/10 02:07:33;;;;;;;0.90;0.90;;;;;;;-0.25;94.37;98372.16;4769983;30;20115;-88
2023/10/10 02:10:12;;;;;;;1.00;1.00;;;;;;;-0.31;94.63;98368.41;4770411;30;20071;-86
2023/10/10 02:12:44;;;;;;;0.93;0.93;;;;;;;-0.34;94.91;98384.69;4784353;30;20520;-88
2023/10/10 02:15:18;;;;;;;0.90;0.90;;;;;;;-0.36;95.03;98364.69;4768979;30;20101;-87
2023/10/10 02:17:56;;;;;;;1.00;1.00;;;;;;;-0.40;95.17;98372.22;4770794;30;20150;-86
2023/10/10 02:22:53;;;;;;;1.00;1.00;;;;;;;-0.41;95.59;98383.00;4770438;30;20351;-87
2023/10/10 02:28:00;;;;;;;0.98;0.98;;;;;;;-0.36;95.67;98380.59;4770038;30;20064;-86
2023/10/10 02:30:34;;;;;;;1.08;1.08;;;;;;;-0.43;95.61;98375.25;4771014;30;20063;-87
2023/10/10 02:35:59;;;;;;;1.00;1.00;;;;;;;-0.41;96.02;98388.31;4771868;30;20070;-88
2023/10/10 02:38:56;;;;;;;0.90;0.90;;;;;;;-0.39;96.12;98387.09;4771098;29;20059;-87
2023/10/10 02:41:38;;;;;;;0.98;0.98;;;;;;;-0.39;96.46;98388.94;4771051;29;20086;-86
2023/10/10 02:44:25;;;;;;;1.00;1.00;;;;;;;-0.42;96.14;98382.19;4770569;30;20563;-88
2023/10/10 02:46:55;;;;;;;0.93;0.93;;;;;;;-0.37;96.47;98392.22;4770874;30;20066;-86
2023/10/10 02:49:23;;;;;;;0.85;0.85;;;;;;;-0.40;96.57;98385.47;4769070;30;20058;-87
2023/10/10 02:51:55;;;;;;;0.93;0.93;;;;;;;-0.37;96.50;98390.38;4784100;30;20159;-86
2023/10/10 02:56:58;;;;;;;0.90;0.90;;;;;;;-0.32;96.30;98392.47;4791078;30;20427;-89
2023/10/10 02:59:43;;;;;;;1.08;1.08;;;;;;;-0.31;95.92;98391.47;4780574;30;20116;-88
2023/10/10 03:02:18;;;;;;;0.95;0.95;;;;;;;-0.32;95.79;98395.13;4782600;30;20147;-88
2023/10/10 03:07:35;;;;;;;0.90;0.90;;;;;;;-0.28;95.46;98397.22;4786878;30;20055;-88
2023/10/10 03:12:43;;;;;;;0.90;0.90;;;;;;;-0.21;95.21;98389.31;4772369;30;20055;-89
2023/10/10 03:15:29;;;;;;;1.00;1.00;;;;;;;-0.19;95.25;98399.75;4772010;30;20059;-89
2023/10/10 03:26:04;;;;;;;1.00;1.00;;;;;;;-0.26;94.60;98404.97;4788509;30;20183;-88
2023/10/10 03:28:41;;;;;;;1.00;1.00;;;;;;;-0.29;95.02;98400.06;4777507;30;20436;-86
2023/10/10 03:41:26;;;;;;;1.00;1.00;;;;;;;-0.33;95.05;98410.22;4802071;30;20051;-86
2023/10/10 05:23:49;;;;;;;1.00;1.00;;;;;;;0.25;92.74;98515.44;4769009;30;20060;-83
2023/10/10 05:26:19;;;;;;;0.80;0.80;;;;;;;0.38;92.79;98534.97;4769657;30;20158;-84
2023/10/10 05:28:47;;;;;;;1.10;1.10;;;;;;;0.28;92.31;98526.50;4763489;30;20060;-83
2023/10/10 05:31:21;;;;;;;0.85;0.85;;;;;;;0.32;91.92;98541.03;4761707;30;20060;-82
2023/10/10 05:33:50;;;;;;;0.98;0.98;;;;;;;0.34;91.84;98539.00;4767648;30;20140;-86
2023/10/10 05:36:18;;;;;;;0.88;0.88;;;;;;;0.35;91.29;98540.66;4759604;30;20071;-84
2023/10/10 05:38:48;;;;;;;1.00;1.00;;;;;;;0.35;90.88;98542.47;4761658;30;20067;-83
2023/10/10 05:41:18;;;;;;;1.00;1.00;;;;;;;0.36;91.01;98550.28;4760854;30;20051;-85
2023/10/10 05:43:49;;;;;;;0.90;0.90;;;;;;;0.41;91.34;98555.00;4766216;30;20063;-85
2023/10/10 05:46:17;;;;;;;1.00;1.00;;;;;;;0.39;91.25;98543.75;4762742;30;20083;-83
2023/10/10 05:48:46;;;;;;;1.00;1.00;;;;;;;0.39;91.31;98555.19;4778490;30;20055;-85
2023/10/10 05:51:14;;;;;;;1.00;1.00;;;;;;;0.47;91.30;98550.78;4762926;30;20052;-85
2023/10/10 05:53:41;;;;;;;0.90;0.90;;;;;;;0.44;91.05;98551.97;4767102;30;20060;-85
2023/10/10 05:56:17;;;;;;;0.90;0.90;;;;;;;0.48;91.28;98558.56;4769003;30;20428;-85
2023/10/10 05:58:47;;;;;;;0.85;0.85;;;;;;;0.48;91.34;98555.06;4780622;29;20090;-84
2023/10/10 06:01:14;;;;;;;1.00;1.00;;;;;;;0.55;91.14;98570.03;4742475;30;20048;-83
2023/10/10 06:03:44;;;;;;;0.90;0.90;;;;;;;0.47;90.78;98556.91;4762833;30;20059;-85
2023/10/10 06:06:13;;;;;;;0.93;0.93;;;;;;;0.69;90.98;98570.16;4760483;30;20079;-86
2023/10/10 06:08:42;;;;;;;1.00;1.00;;;;;;;0.69;90.89;98565.69;4761261;30;20098;-84
2023/10/10 06:11:10;;;;;;;0.90;0.90;;;;;;;0.74;90.87;98568.59;4760555;30;20117;-84
2023/10/10 06:13:40;;;;;;;1.00;1.00;;;;;;;0.67;91.06;98562.38;4763639;30;20121;-86
2023/10/10 06:16:14;;;;;;;1.10;1.10;;;;;;;0.69;90.31;98573.66;4767307;30;20462;-84
2023/10/10 06:18:44;;;;;;;0.80;0.80;;;;;;;0.71;90.15;98582.25;4761659;30;20087;-86
2023/10/10 06:21:14;;;;;;;0.90;0.90;;;;;;;0.73;89.94;98579.38;4778324;30;20059;-86
2023/10/10 06:23:44;;;;;;;1.10;1.10;;;;;;;0.78;90.10;98583.09;4765794;30;20447;-84
2023/10/10 06:26:12;;;;;;;0.88;0.88;;;;;;;0.82;89.58;98567.63;4763317;30;20054;-85
2023/10/10 06:28:47;;;;;;;0.90;0.90;;;;;;;0.73;90.16;98577.53;4765649;30;20085;-83
2023/10/10 06:31:19;;;;;;;1.00;1.00;;;;;;;0.71;90.32;98586.72;4749317;30;20060;-84
2023/10/10 06:33:50;;;;;;;0.90;0.90;;;;;;;0.73;90.39;98598.78;4781025;30;20060;-82
2023/10/10 06:41:41;;;;;;;1.05;1.05;;;;;;;0.67;89.84;98607.53;4780476;30;20051;-82
2023/10/10 06:44:17;;;;;;;1.00;1.00;;;;;;;0.68;89.63;98605.69;4762532;30;20052;-83
2023/10/10 06:46:47;;;;;;;1.02;1.02;;;;;;;0.74;89.60;98608.44;4761297;30;20052;-83
2023/10/10 06:49:15;;;;;;;1.00;1.00;;;;;;;0.88;89.31;98608.53;4765606;30;20159;-82
2023/10/10 06:51:43;;;;;;;1.10;1.10;;;;;;;1.06;89.46;98612.38;4751038;30;20095;-84
2023/10/10 06:54:27;;;;;;;0.90;0.90;;;;;;;1.16;88.84;98614.66;4765515;30;20056;-84
2023/10/10 06:59:29;;;;;;;0.98;0.98;;;;;;;1.18;86.81;98615.31;4762098;30;20055;-85
2023/10/10 07:01:59;;;;;;;1.02;1.02;;;;;;;1.03;85.91;98601.28;4763721;30;20082;-85
2023/10/10 07:04:28;;;;;;;1.00;1.00;;;;;;;0.98;86.25;98595.72;4780520;30;20113;-82
2023/10/10 07:07:00;;;;;;;0.98;0.98;;;;;;;1.04;86.47;98618.91;4780872;30;20138;-85
2023/10/10 07:09:29;;;;;;;0.98;0.98;;;;;;;1.01;86.46;98621.91;4766601;30;20120;-84
2023/10/10 07:12:10;;;;;;;0.93;0.93;;;;;;;0.92;86.60;98617.78;4766313;30;20115;-86
2023/10/10 07:14:43;;;;;;;1.10;1.10;;;;;;;0.94;86.94;98626.34;4765084;30;20409;-83
2023/10/10 07:17:15;;;;;;;0.90;0.90;;;;;;;1.07;87.30;98621.16;4766379;30;20092;-84
2023/10/10 07:22:34;;;;;;;1.10;1.10;;;;;;;1.39;86.11;98627.72;4766696;30;20538;-84
2023/10/10 07:28:10;;;;;;;0.93;0.93;;;;;;;1.69;83.96;98633.63;4769785;30;20058;-85
2023/10/10 07:30:44;;;;;;;1.00;1.00;;;;;;;1.52;83.91;98641.13;4766077;30;20109;-85
2023/10/10 07:33:40;;;;;;;0.90;0.90;;;;;;;1.41;83.56;98624.88;4779796;29;20148;-84
2023/10/10 07:37:16;;;;;;;1.10;1.10;;;;;;;1.38;83.57;98633.25;4720400;30;20052;-85
2023/10/10 07:40:46;;;;;;;1.00;1.00;;;;;;;1.32;84.10;98647.28;4746974;30;20062;-85
2023/10/10 07:43:50;;;;;;;1.02;1.02;;;;;;;1.27;83.65;98662.00;4722980;30;20056;-86
2023/10/10 07:50:08;;;;;;;1.00;1.00;;;;;;;1.18;84.33;98660.50;4617361;30;20063;-85
2023/10/10 07:54:40;;;;;;;1.00;1.00;;;;;;;1.44;84.79;98661.69;4603456;31;20472;-84
2023/10/10 07:57:11;;;;;;;1.10;1.10;;;;;;;1.49;84.85;98662.78;4611658;31;20119;-86
2023/10/10 07:59:38;;;;;;;1.00;1.00;;;;;;;1.59;84.77;98669.56;4598059;31;20068;-85
2023/10/10 08:02:20;;;;;;;0.90;0.90;;;;;;;1.51;84.65;98657.25;4611679;31;20059;-83
2023/10/10 08:04:50;;;;;;;1.00;1.00;;;;;;;1.63;84.77;98669.00;4568736;31;20068;-85
2023/10/10 08:07:18;;;;;;;1.00;1.00;;;;;;;1.72;84.14;98675.81;4598421;31;20525;-85
2023/10/10 08:09:48;;;;;;;0.90;0.90;;;;;;;1.64;84.11;98667.97;4611659;31;20064;-85
2023/10/10 08:12:16;;;;;;;0.90;0.90;;;;;;;1.56;83.39;98669.97;4611655;31;20075;-85
2023/10/10 08:14:43;;;;;;;1.00;1.00;;;;;;;1.55;83.90;98678.97;4603953;31;20514;-85
2023/10/10 08:17:19;;;;;;;1.00;1.00;;;;;;;1.44;83.19;98667.03;4595213;31;20140;-85
2023/10/10 08:19:53;;;;;;;0.90;0.90;;;;;;;1.30;83.46;98669.59;4600392;30;20526;-85
2023/10/10 08:22:25;;;;;;;1.00;1.00;;;;;;;1.55;83.36;98678.97;4662672;30;20054;-85
2023/10/10 08:24:53;;;;;;;1.05;1.05;;;;;;;1.58;82.94;98674.09;4681800;30;20332;-84
2023/10/10 08:27:22;;;;;;;1.00;1.00;;;;;;;1.56;82.18;98678.78;4701015;30;20057;-85
2023/10/10 08:29:50;;;;;;;0.98;0.98;;;;;;;1.48;82.81;98692.22;4700418;30;20434;-86
2023/10/10 08:32:17;;;;;;;1.10;1.10;;;;;;;1.47;82.46;98678.09;4701403;30;20145;-86
2023/10/10 08:34:44;;;;;;;1.00;1.00;;;;;;;1.54;82.85;98696.75;4719980;30;20059;-85
2023/10/10 08:37:15;;;;;;;0.70;0.70;;;;;;;1.43;82.46;98690.13;4735091;30;20153;-85
2023/10/10 08:39:42;;;;;;;1.00;1.00;;;;;;;1.66;82.25;98697.06;4743128;30;20191;-85
2023/10/10 08:42:10;;;;;;;1.00;1.00;;;;;;;1.64;82.21;98699.91;4753652;30;20067;-85
2023/10/10 08:44:39;;;;;;;1.10;1.10;;;;;;;1.63;81.84;98716.88;4752269;30;20458;-85
2023/10/10 08:47:08;;;;;;;1.00;1.00;;;;;;;1.63;81.76;98706.25;4767198;30;20048;-86
2023/10/10 08:49:35;;;;;;;0.90;0.90;;;;;;;1.63;82.07;98711.56;4754148;30;20147;-85
2023/10/10 08:52:04;;;;;;;1.02;1.02;;;;;;;1.79;82.28;98710.44;4753824;30;20080;-85
2023/10/10 08:54:32;;;;;;;1.00;1.00;;;;;;;1.92;82.27;98723.84;4753136;30;20555;-85
2023/10/10 08:57:00;;;;;;;0.90;0.90;;;;;;;2.04;82.16;98707.31;4753019;30;20110;-85
2023/10/10 08:59:29;;;;;;;1.00;1.00;;;;;;;2.16;81.20;98724.38;4753354;30;20080;-85
2023/10/10 09:02:12;;;;;;;0.90;0.90;;;;;;;2.01;80.37;98729.81;4770400;30;20083;-84
2023/10/10 09:04:39;;;;;;;1.10;1.10;;;;;;;1.90;80.10;98725.03;4754920;30;20064;-85
2023/10/10 09:07:11;;;;;;;1.10;1.10;;;;;;;1.83;79.96;98721.53;4752940;30;20154;-85
2023/10/10 09:09:39;;;;;;;1.10;1.10;;;;;;;1.94;79.68;98718.31;4766201;30;20064;-86
2023/10/10 09:12:14;;;;;;;0.90;0.90;;;;;;;1.86;79.30;98723.78;4753490;30;20370;-85
2023/10/10 09:14:49;;;;;;;1.00;1.00;;;;;;;2.01;78.55;98740.47;4753782;30;20083;-85
2023/10/10 09:17:40;;;;;;;1.10;1.10;;;;;;;2.14;78.89;98737.88;4752630;30;20147;-85
2023/10/10 09:20:23;;;;;;;1.10;1.10;;;;;;;2.16;79.00;98732.38;4768003;30;20094;-85
2023/10/10 09:22:51;;;;;;;0.90;0.90;;;;;;;2.22;78.67;98744.88;4754477;30;20084;-86
2023/10/10 09:25:26;;;;;;;1.08;1.08;;;;;;;2.14;78.55;98732.53;4752982;30;20055;-85
2023/10/10 09:28:08;;;;;;;0.98;0.98;;;;;;;2.08;78.48;98733.34;4752768;30;20106;-86
2023/10/10 09:30:40;;;;;;;0.95;0.95;;;;;;;2.13;79.03;98736.25;4754688;30;20143;-86
2023/10/10 09:33:22;;;;;;;1.00;1.00;;;;;;;2.21;79.02;98748.56;4756032;30;20082;-85
2023/10/10 09:35:54;;;;;;;1.00;1.00;;;;;;;2.29;78.80;98743.06;4753719;30;20069;-86
2023/10/10 09:38:26;;;;;;;0.90;0.90;;;;;;;2.35;78.87;98741.47;4739938;30;20162;-86
2023/10/10 09:41:10;;;;;;;1.05;1.05;;;;;;;2.39;79.04;98742.72;4755105;30;20052;-85
2023/10/10 09:44:00;;;;;;;1.10;1.10;;;;;;;2.36;78.61;98753.78;4769127;30;20060;-84
2023/10/10 09:46:53;;;;;;;0.98;0.98;;;;;;;2.42;78.70;98752.16;4766845;30;20508;-86
2023/10/10 09:49:40;;;;;;;1.00;1.00;;;;;;;2.31;79.10;98761.53;4751896;30;20072;-86
2023/10/10 09:58:00;;;;;;;1.10;1.10;;;;;;;1.86;79.02;98758.38;4766496;30;20048;-85
2023/10/10 10:00:45;;;;;;;1.00;1.00;;;;;;;1.89;79.92;98768.63;4758982;30;20071;-86
2023/10/10 10:03:31;;;;;;;1.00;1.00;;;;;;;2.04;80.23;98772.00;4769787;30;20056;-86
2023/10/10 10:06:27;;;;;;;1.00;1.00;;;;;;;2.07;80.03;98779.59;4757970;30;20142;-85
2023/10/10 10:09:17;;;;;;;1.00;1.00;;;;;;;2.12;80.78;98777.19;4759550;30;20064;-85
2023/10/10 10:12:04;;;;;;;1.00;1.00;;;;;;;2.23;80.85;98785.63;4753124;30;20079;-85
2023/10/10 10:14:48;;;;;;;1.00;1.00;;;;;;;2.40;80.70;98781.63;4754613;30;20080;-86
2023/10/10 10:17:30;;;;;;;1.10;1.10;;;;;;;2.83;80.00;98781.41;4766025;30;20109;-86
2023/10/10 10:20:19;;;;;;;1.00;1.00;;;;;;;2.84;78.16;98783.06;4753193;30;20151;-85
2023/10/10 10:22:59;;;;;;;1.00;1.00;;;;;;;2.70;77.88;98789.34;4752562;30;20052;-85
2023/10/10 10:25:31;;;;;;;0.90;0.90;;;;;;;2.34;77.05;98766.47;4736803;30;20528;-87
2023/10/10 10:28:14;;;;;;;1.00;1.00;;;;;;;2.14;77.80;98783.13;4751736;30;20052;-86
2023/10/10 10:30:47;;;;;;;1.00;1.00;;;;;;;2.26;78.21;98791.41;4724676;30;20053;-83
2023/10/10 10:33:19;;;;;;;1.00;1.00;;;;;;;2.52;77.55;98789.91;4768243;30;20048;-85
2023/10/10 10:35:56;;;;;;;1.10;1.10;;;;;;;2.48;76.38;98801.97;4766070;30;20052;-84
2023/10/10 10:38:24;;;;;;;0.90;0.90;;;;;;;2.28;76.37;98793.84;4752198;30;20070;-84
2023/10/10 10:41:04;;;;;;;0.90;0.90;;;;;;;2.26;76.38;98790.59;4767142;30;20109;-84
2023/10/10 10:43:34;;;;;;;0.90;0.90;;;;;;;2.44;75.52;98796.22;4783310;29;20056;-84
2023/10/10 10:46:14;;;;;;;1.00;1.00;;;;;;;2.86;74.97;98802.34;4768205;30;20055;-86
2023/10/10 10:48:47;;;;;;;1.10;1.10;;;;;;;3.90;72.68;98804.56;4768623;30;20055;-84
2023/10/10 10:54:02;;;;;;;1.27;1.20;;;;;;;3.95;69.31;98800.44;4768880;30;20052;-85
2023/10/10 10:59:13;;;;;;;1.10;1.10;;;;;;;4.36;67.63;98794.84;4765159;30;20061;-85
2023/10/10 11:01:45;;;;;;;1.10;1.10;;;;;;;4.72;65.81;98798.84;4764990;30;20072;-86
2023/10/10 11:04:18;;;;;;;1.08;1.08;;;;;;;4.48;65.23;98811.03;4769722;30;20064;-86
2023/10/10 11:06:52;;;;;;;0.90;0.90;;;;;;;4.24;65.60;98816.03;4758133;30;20075;-86
2023/10/10 11:09:27;;;;;;;1.00;1.00;;;;;;;4.72;63.88;98817.53;4766241;30;20154;-85
2023/10/10 11:12:02;;;;;;;1.00;1.00;;;;;;;4.19;64.72;98823.84;4764466;30;20059;-86
2023/10/10 11:14:34;;;;;;;0.90;0.90;;;;;;;3.95;66.74;98811.97;4762862;30;20066;-84
2023/10/10 11:17:02;;;;;;;0.90;0.90;;;;;;;3.89;66.92;98816.25;4762724;30;20139;-83
2023/10/10 11:22:05;;;;;;;1.00;1.00;;;;;;;3.39;66.96;98823.84;4772607;30;20048;-85
2023/10/10 11:24:34;;;;;;;0.90;0.90;;;;;;;3.31;67.86;98829.34;4766601;30;20166;-82
2023/10/10 11:32:46;;;;;;;1.00;1.00;;;;;;;3.66;67.30;98832.69;4767396;30;20067;-85
2023/10/10 11:35:25;;;;;;;1.10;1.10;;;;;;;4.12;66.40;98849.72;4767352;30;20113;-83
2023/10/10 11:37:59;;;;;;;1.70;1.60;;;;;;;5.76;62.26;98837.75;4765255;30;20507;-85
2023/10/10 11:43:03;;;;;;;1.00;1.00;;;;;;;5.35;61.47;98840.94;4763741;30;20167;-85
2023/10/10 11:45:51;;;;;;;1.00;1.00;;;;;;;4.92;62.18;98855.72;4767714;30;20538;-83
2023/10/10 11:48:19;;;;;;;0.90;0.90;;;;;;;4.42;63.13;98851.97;4760812;30;20110;-83
2023/10/10 11:50:51;;;;;;;1.00;1.00;;;;;;;3.96;64.51;98867.00;4767562;30;20071;-85
2023/10/10 11:53:23;;;;;;;0.90;0.90;;;;;;;3.61;66.22;98856.47;4776816;30;20055;-84
2023/10/10 11:55:54;;;;;;;1.00;1.00;;;;;;;3.42;67.32;98857.28;4769746;30;20057;-85
2023/10/10 11:58:35;;;;;;;0.80;0.80;;;;;;;3.32;68.18;98855.00;4765269;30;20152;-85
2023/10/10 12:01:08;;;;;;;0.90;0.90;;;;;;;3.13;69.14;98871.75;4760858;30;20083;-85
2023/10/10 12:06:14;;;;;;;0.82;0.82;;;;;;;3.14;69.94;98878.72;4763499;30;20068;-85
2023/10/10 12:08:48;;;;;;;0.90;0.90;;;;;;;3.27;70.16;98873.44;4768154;30;20109;-85
2023/10/10 12:11:20;;;;;;;1.00;1.00;;;;;;;3.53;69.83;98877.22;4768741;30;20060;-84
2023/10/10 12:13:50;;;;;;;1.00;1.00;;;;;;;3.68;68.49;98880.53;4767003;30;20427;-85
2023/10/10 12:16:23;;;;;;;1.00;1.00;;;;;;;3.72;66.99;98884.41;4765960;30;20056;-85
2023/10/10 12:18:54;;;;;;;0.90;0.90;;;;;;;3.56;64.88;98876.81;4774984;29;20057;-85
2023/10/10 12:21:25;;;;;;;0.90;0.90;;;;;;;3.41;65.30;98880.44;4763468;30;20113;-85
2023/10/10 12:23:57;;;;;;;0.98;0.98;;;;;;;3.30;65.21;98875.72;4749093;30;20075;-85
2023/10/10 12:26:29;;;;;;;0.93;0.93;;;;;;;3.30;65.26;98888.22;4737133;30;20060;-85
2023/10/10 12:28:58;;;;;;;0.93;0.93;;;;;;;3.32;65.54;98891.50;4763523;30;20063;-85
2023/10/10 12:31:25;;;;;;;1.00;1.00;;;;;;;3.27;65.46;98889.47;4765896;30;20060;-85
2023/10/10 12:33:55;;;;;;;0.90;0.90;;;;;;;3.22;65.19;98891.91;4767845;30;20060;-84
2023/10/10 12:36:28;;;;;;;0.90;0.90;;;;;;;3.13;65.61;98893.09;4736895;30;20056;-85
2023/10/10 12:39:04;;;;;;;0.80;0.80;;;;;;;3.07;65.19;98894.72;4750052;30;20572;-86
2023/10/10 12:41:45;;;;;;;1.00;1.00;;;;;;;2.96;65.08;98887.25;4760228;30;20341;-82
2023/10/10 12:44:14;;;;;;;0.90;0.90;;;;;;;2.94;65.00;98900.81;4760469;30;20099;-85
2023/10/10 12:46:42;;;;;;;0.90;0.90;;;;;;;2.87;64.73;98899.94;4752152;30;20081;-85
2023/10/10 12:49:11;;;;;;;1.00;1.00;;;;;;;2.73;64.77;98903.53;4758846;30;20071;-85
2023/10/10 12:51:39;;;;;;;0.80;0.80;;;;;;;2.76;65.53;98913.81;4743901;30;20498;-84
2023/10/10 12:54:10;;;;;;;1.00;1.00;;;;;;;2.78;66.15;98917.09;4763865;30;20420;-84
2023/10/10 12:56:48;;;;;;;1.00;1.00;;;;;;;2.60;66.26;98915.75;4767449;29;20489;-84
2023/10/10 12:59:18;;;;;;;0.95;0.95;;;;;;;2.51;67.39;98922.28;4758386;30;20082;-85
2023/10/10 13:01:56;;;;;;;1.00;1.00;;;;;;;2.45;67.80;98931.03;4767460;30;20070;-85
2023/10/10 13:04:29;;;;;;;0.90;0.90;;;;;;;2.39;68.43;98929.97;4766360;30;20064;-84
2023/10/10 13:07:03;;;;;;;0.90;0.90;;;;;;;2.40;68.53;98925.47;4767171;30;20059;-85
2023/10/10 13:09:32;;;;;;;1.10;1.10;;;;;;;2.42;68.61;98928.75;4765603;30;20496;-84
2023/10/10 13:12:02;;;;;;;0.90;0.90;;;;;;;2.45;68.11;98930.22;4754097;30;20055;-85
2023/10/10 13:14:32;;;;;;;0.85;0.85;;;;;;;2.49;68.26;98942.97;4770375;30;20090;-83
2023/10/10 13:19:48;;;;;;;1.10;1.10;;;;;;;2.38;68.51;98930.16;4765317;30;20179;-84
2023/10/10 13:22:20;;;;;;;1.00;1.00;;;;;;;2.51;68.52;98948.94;4762032;30;20055;-85
2023/10/10 13:24:49;;;;;;;0.90;0.90;;;;;;;2.42;68.77;98935.94;4760172;30;20067;-84
2023/10/10 13:27:17;;;;;;;0.90;0.90;;;;;;;2.38;69.28;98939.00;4760700;30;20121;-84
2023/10/10 13:29:45;;;;;;;1.00;1.00;;;;;;;2.52;69.56;98955.88;4762446;30;20060;-83
2023/10/10 13:32:12;;;;;;;0.90;0.90;;;;;;;2.50;69.56;98957.91;4770271;30;20055;-84
2023/10/10 13:34:40;;;;;;;0.90;0.90;;;;;;;2.48;69.50;98964.44;4769903;30;20052;-84
2023/10/10 13:37:07;;;;;;;0.90;0.90;;;;;;;2.37;69.70;98958.63;4761225;30;20056;-84
2023/10/10 13:39:47;;;;;;;1.00;1.00;;;;;;;2.35;69.30;98955.34;4781799;29;20052;-84
2023/10/10 13:42:17;;;;;;;0.75;0.75;;;;;;;2.27;68.05;98955.47;4760100;30;20110;-84
2023/10/10 13:44:45;;;;;;;1.00;1.00;;;;;;;2.24;67.70;98965.72;4761166;30;20056;-83
2023/10/10 13:47:13;;;;;;;0.90;0.90;;;;;;;2.22;67.82;98971.22;4771790;30;20054;-85
2023/10/10 13:49:58;;;;;;;0.85;0.85;;;;;;;2.24;68.05;98976.34;4786886;30;20109;-85
2023/10/10 13:52:25;;;;;;;1.08;1.08;;;;;;;2.14;67.52;98980.16;4770132;30;20476;-86
2023/10/10 13:54:52;;;;;;;1.00;1.00;;;;;;;2.15;66.73;98989.81;4766999;30;20055;-84
2023/10/10 13:57:20;;;;;;;0.80;0.80;;;;;;;2.10;67.05;98978.06;4761618;30;20465;-83
2023/10/10 13:59:49;;;;;;;1.00;1.00;;;;;;;2.12;67.42;98998.16;4765621;30;20133;-84
2023/10/10 14:02:17;;;;;;;0.93;0.93;;;;;;;2.10;67.22;99005.53;4762049;30;20075;-84
2023/10/10 14:04:48;;;;;;;1.00;1.00;;;;;;;2.10;67.56;99005.53;4769497;30;20091;-84
2023/10/10 14:07:16;;;;;;;0.93;0.93;;;;;;;2.08;67.97;99002.22;4768649;30;20056;-83
2023/10/10 14:09:48;;;;;;;1.00;1.00;;;;;;;2.00;67.83;99009.50;4765458;30;20075;-85
2023/10/10 14:12:31;;;;;;;0.90;0.90;;;;;;;1.99;68.53;99019.31;4767278;30;20137;-86
2023/10/10 14:15:01;;;;;;;0.98;0.98;;;;;;;2.01;69.11;99024.47;4766850;30;20066;-85
2023/10/10 14:17:29;;;;;;;0.93;0.93;;;;;;;2.01;68.64;99021.81;4766675;30;20051;-86
2023/10/10 14:19:59;;;;;;;1.00;1.00;;;;;;;1.97;68.91;99029.34;4781563;30;20063;-85
2023/10/10 14:22:26;;;;;;;0.88;0.88;;;;;;;1.90;69.13;99034.59;4768800;30;20052;-84
2023/10/10 14:25:03;;;;;;;0.98;0.98;;;;;;;1.82;68.72;99033.88;4771120;30;20055;-86
2023/10/10 14:27:31;;;;;;;0.90;0.90;;;;;;;1.73;69.08;99046.47;4770684;30;20405;-85
2023/10/10 14:30:03;;;;;;;1.00;1.00;;;;;;;1.67;69.36;99049.84;4754207;30;20055;-86
2023/10/10 14:32:30;;;;;;;1.00;1.00;;;;;;;1.57;69.09;99050.19;4771742;30;20079;-85
2023/10/10 14:35:05;;;;;;;;;;;;;;;1.59;69.12;99061.44;4769887;30;20055;-85
2023/10/10 14:37:32;;;;;;;1.00;1.00;;;;;;;1.58;69.13;99062.44;4754987;30;19996;-86
2023/10/10 14:40:19;;;;;;;1.00;1.00;;;;;;;1.54;69.46;99068.31;4775664;30;20141;-85
2023/10/10 14:42:46;;;;;;;1.00;1.00;;;;;;;1.55;69.75;99068.16;4802347;29;20396;-85
2023/10/10 14:45:13;;;;;;;1.00;1.00;;;;;;;1.58;69.97;99080.25;4788174;29;20047;-86
2023/10/10 14:47:43;;;;;;;1.00;1.00;;;;;;;1.58;70.47;99073.09;4788330;29;20055;-86
2023/10/10 14:50:12;;;;;;;0.95;0.95;;;;;;;1.51;70.75;99086.28;4788445;29;20051;-86
2023/10/10 14:52:47;;;;;;;1.00;1.00;;;;;;;1.43;70.99;99089.06;4789741;29;20047;-88
2023/10/10 14:55:24;;;;;;;0.88;0.88;;;;;;;1.41;71.65;99090.25;4787664;29;20047;-86
2023/10/10 14:57:57;;;;;;;0.90;0.90;;;;;;;1.43;71.92;99098.88;4784479;30;20070;-86
2023/10/10 15:00:25;;;;;;;0.80;0.80;;;;;;;1.41;72.14;99106.19;4766955;30;20574;-86
2023/10/10 15:02:53;;;;;;;0.90;0.90;;;;;;;1.37;72.53;99095.13;4779723;29;20153;-86
2023/10/10 15:05:25;;;;;;;1.00;1.00;;;;;;;1.43;72.85;99109.50;4768237;30;20066;-85
2023/10/10 15:07:54;;;;;;;1.00;1.00;;;;;;;1.45;72.92;99107.50;4761904;30;20421;-86
2023/10/10 15:10:25;;;;;;;0.93;0.93;;;;;;;1.47;72.90;99113.47;4727995;30;20056;-85
2023/10/10 15:12:54;;;;;;;0.90;0.90;;;;;;;1.56;73.12;99127.50;4776561;30;20051;-85
2023/10/10 15:15:22;;;;;;;0.80;0.80;;;;;;;1.58;73.02;99133.47;4755798;30;20060;-85
2023/10/10 15:17:51;;;;;;;0.80;0.80;;;;;;;1.57;72.88;99122.00;4759293;30;20052;-84
2023/10/10 15:20:18;;;;;;;0.90;0.90;;;;;;;1.53;73.27;99128.69;4761298;30;20094;-80
2023/10/10 15:22:46;;;;;;;0.90;0.90;;;;;;;1.53;73.70;99131.34;4775140;30;20059;-81
2023/10/10 15:25:15;;;;;;;1.00;1.00;;;;;;;1.46;73.90;99139.22;4768551;30;20059;-83